Time;durP1;ratioP1;P1;durP2;ratioP2;P2;SDS_P1;SDS_P2;PMS_P1;PMS_P2;Temp;Humidity;BMP_temperature;BMP_pressure;BME280_temperature;BME280_humidity;BME280_pressure;Samples;Min_cycle;Max_cycle;Signal;HPM_P1;HPM_P2
2023/10/12 00:01:58;;;;;;;8.40;5.40;;;;;;;16.37;62.97;97954.81;5105138;28;21022;-74
2023/10/12 00:04:27;;;;;;;7.07;5.13;;;;;;;16.37;63.11;97957.56;5103585;28;20447;-74
2023/10/12 00:06:54;;;;;;;7.80;5.07;;;;;;;16.26;63.27;97951.03;5092768;28;20595;-73
2023/10/12 00:09:25;;;;;;;9.80;5.57;;;;;;;16.18;63.48;97942.41;5096086;28;20488;-74
2023/10/12 00:11:57;;;;;;;6.10;5.07;;;;;;;16.25;63.33;97943.06;5103880;28;20523;-74
2023/10/12 00:14:32;;;;;;;7.00;6.07;;;;;;;16.17;63.54;97944.31;5109073;28;20452;-74
2023/10/12 00:16:58;;;;;;;8.73;5.83;;;;;;;16.11;63.85;97948.00;5099775;28;20455;-74
2023/10/12 00:19:26;;;;;;;6.83;4.90;;;;;;;16.07;63.85;97939.44;5098698;28;20512;-74
2023/10/12 00:21:59;;;;;;;6.37;4.27;;;;;;;16.05;64.00;97943.47;5097379;28;20583;-74
2023/10/12 00:24:26;;;;;;;6.70;5.57;;;;;;;16.07;64.05;97947.63;5097357;28;21006;-74
2023/10/12 00:26:53;;;;;;;7.00;5.20;;;;;;;16.01;64.25;97947.75;5104330;28;20487;-74
2023/10/12 00:29:20;;;;;;;7.40;5.23;;;;;;;15.98;64.50;97935.41;5105699;28;20915;-74
2023/10/12 00:31:50;;;;;;;6.43;5.10;;;;;;;15.99;64.26;97939.81;5105520;28;20488;-74
2023/10/12 00:34:23;;;;;;;6.67;5.43;;;;;;;15.95;64.47;97935.88;5109313;28;20449;-74
2023/10/12 00:36:53;;;;;;;8.97;5.13;;;;;;;15.96;64.41;97937.56;5101433;28;21038;-74
2023/10/12 00:39:21;;;;;;;7.17;5.97;;;;;;;15.79;64.94;97937.47;5102675;28;20473;-74
2023/10/12 00:41:51;;;;;;;7.73;6.03;;;;;;;15.69;65.45;97928.19;5107830;28;21160;-74
2023/10/12 00:44:19;;;;;;;12.40;5.93;;;;;;;15.56;65.90;97932.00;5110175;28;20626;-74
2023/10/12 00:47:12;;;;;;;7.60;6.00;;;;;;;15.57;65.87;97930.13;5105503;28;20988;-74
2023/10/12 00:49:48;;;;;;;9.80;6.20;;;;;;;15.61;65.62;97920.34;5106756;28;20487;-74
2023/10/12 00:52:23;;;;;;;10.50;6.10;;;;;;;15.68;65.61;97915.63;5104145;28;20463;-74
2023/10/12 00:54:56;;;;;;;11.57;6.50;;;;;;;15.71;65.28;97915.16;5105226;28;20483;-74
2023/10/12 00:57:22;;;;;;;7.47;6.00;;;;;;;15.61;65.58;97925.81;5106090;28;20464;-74
2023/10/12 00:59:51;;;;;;;8.23;6.20;;;;;;;15.68;65.41;97916.44;5106659;28;20498;-74
2023/10/12 01:02:23;;;;;;;10.87;5.87;;;;;;;15.65;65.62;97914.19;5109486;28;20441;-74
2023/10/12 01:04:53;;;;;;;8.77;6.03;;;;;;;15.63;65.81;97913.59;5107123;28;20456;-74
2023/10/12 01:07:25;;;;;;;7.40;5.90;;;;;;;15.57;66.00;97914.56;5096856;28;20456;-74
2023/10/12 01:10:02;;;;;;;8.10;5.50;;;;;;;15.50;66.22;97913.81;5098471;28;20467;-74
2023/10/12 01:12:30;;;;;;;8.90;5.83;;;;;;;15.48;66.43;97915.13;5101955;28;20525;-74
2023/10/12 01:14:57;;;;;;;8.93;6.20;;;;;;;15.42;66.58;97912.28;5106124;28;20454;-74
2023/10/12 01:17:26;;;;;;;7.70;5.87;;;;;;;15.38;66.70;97922.00;5102991;28;21010;-74
2023/10/12 01:19:54;;;;;;;8.87;6.17;;;;;;;15.23;67.58;97912.63;5104768;28;20490;-74
2023/10/12 01:22:27;;;;;;;12.10;7.00;;;;;;;15.26;67.47;97912.97;5101692;28;20532;-74
2023/10/12 01:25:10;;;;;;;8.13;5.80;;;;;;;15.34;67.16;97909.06;5106057;28;20467;-74
2023/10/12 01:27:41;;;;;;;12.60;6.63;;;;;;;15.22;67.63;97909.06;5101239;28;20479;-74
2023/10/12 01:30:16;;;;;;;7.50;5.97;;;;;;;15.18;67.74;97904.31;5105549;28;20570;-74
2023/10/12 01:32:42;;;;;;;6.90;6.30;;;;;;;15.05;68.25;97906.16;5108070;28;20530;-74
2023/10/12 01:35:11;;;;;;;6.90;6.20;;;;;;;15.16;68.07;97900.97;5101197;28;20547;-74
2023/10/12 01:37:48;;;;;;;9.97;6.00;;;;;;;15.01;68.50;97899.53;5100855;28;20641;-74
2023/10/12 01:40:20;;;;;;;8.93;6.77;;;;;;;14.98;68.78;97907.34;5101021;28;20514;-74
2023/10/12 01:42:50;;;;;;;7.40;6.13;;;;;;;14.86;69.32;97911.94;5096350;28;20481;-74
2023/10/12 01:45:18;;;;;;;8.73;6.00;;;;;;;14.73;69.55;97908.34;5111434;28;20540;-74
2023/10/12 01:47:50;;;;;;;11.23;6.50;;;;;;;14.75;69.54;97903.50;5100593;28;20456;-74
2023/10/12 01:50:17;;;;;;;7.37;6.13;;;;;;;14.81;69.57;97903.63;5102098;28;20564;-73
2023/10/12 01:52:47;;;;;;;11.10;5.53;;;;;;;14.63;69.98;97894.44;5099407;28;20448;-74
2023/10/12 01:55:18;;;;;;;6.73;6.07;;;;;;;14.70;69.98;97897.91;5099550;28;20538;-74
2023/10/12 01:57:52;;;;;;;9.50;6.90;;;;;;;14.87;69.29;97894.53;5103000;28;20463;-74
2023/10/12 02:00:25;;;;;;;7.50;5.53;;;;;;;14.73;69.95;97899.34;5102596;28;20520;-74
2023/10/12 02:03:01;;;;;;;8.37;6.03;;;;;;;14.92;69.36;97890.03;5100848;28;21215;-74
2023/10/12 02:05:30;;;;;;;10.13;6.07;;;;;;;14.81;69.55;97900.91;5108561;28;20454;-74
2023/10/12 02:08:05;;;;;;;10.20;6.20;;;;;;;14.91;69.43;97893.84;5094155;28;20543;-75
2023/10/12 02:10:43;;;;;;;10.03;6.13;;;;;;;14.83;69.70;97898.78;5095865;28;20531;-74
2023/10/12 02:13:10;;;;;;;7.80;6.13;;;;;;;14.78;69.68;97905.75;5102311;28;20542;-75
2023/10/12 02:15:38;;;;;;;7.00;6.13;;;;;;;14.80;69.79;97902.78;5103930;28;20564;-74
2023/10/12 02:18:11;;;;;;;6.13;5.40;;;;;;;14.86;69.43;97901.88;5103975;28;20467;-73
2023/10/12 02:20:58;;;;;;;7.60;6.70;;;;;;;14.99;68.89;97898.94;5104484;28;20884;-74
2023/10/12 02:23:32;;;;;;;10.63;6.20;;;;;;;14.87;69.21;97908.97;5101017;28;20863;-74
2023/10/12 02:26:07;;;;;;;9.40;6.60;;;;;;;14.79;69.65;97903.84;5104908;28;20462;-74
2023/10/12 02:28:37;;;;;;;8.47;6.37;;;;;;;14.90;69.46;97908.53;5104666;28;20536;-73
2023/10/12 02:31:05;;;;;;;10.17;6.90;;;;;;;15.00;69.28;97905.22;5106177;28;20473;-74
2023/10/12 02:33:36;;;;;;;11.40;6.67;;;;;;;14.99;68.91;97907.09;5108071;28;20502;-74
2023/10/12 02:36:06;;;;;;;8.57;6.30;;;;;;;14.87;69.25;97891.81;5103715;28;20541;-74
2023/10/12 02:38:35;;;;;;;8.60;6.60;;;;;;;14.74;69.97;97899.09;5104542;28;20488;-74
2023/10/12 02:41:03;;;;;;;7.70;6.07;;;;;;;14.79;69.62;97901.97;5100313;28;20474;-74
2023/10/12 02:43:32;;;;;;;6.90;5.80;;;;;;;14.77;69.85;97893.19;5101974;28;20959;-74
2023/10/12 02:46:06;;;;;;;9.93;6.80;;;;;;;14.74;69.82;97885.47;5104272;28;20463;-74
2023/10/12 02:48:36;;;;;;;8.00;6.33;;;;;;;14.86;69.43;97901.03;5105179;28;20539;-74
2023/10/12 02:51:06;;;;;;;8.07;6.23;;;;;;;14.82;69.65;97888.94;5105293;28;20468;-74
2023/10/12 02:53:34;;;;;;;7.43;6.27;;;;;;;14.80;69.70;97891.91;5102997;28;20502;-74
2023/10/12 02:56:02;;;;;;;8.73;5.90;;;;;;;14.98;68.95;97890.97;5102927;28;20459;-74
2023/10/12 02:58:30;;;;;;;8.10;6.03;;;;;;;15.04;68.71;97884.59;5100197;28;20486;-74
2023/10/12 03:01:12;;;;;;;8.37;6.00;;;;;;;14.95;68.93;97883.28;5103322;28;20913;-74
2023/10/12 03:03:39;;;;;;;9.50;6.43;;;;;;;14.98;68.96;97888.25;5104131;28;20534;-74
2023/10/12 03:06:08;;;;;;;8.93;6.53;;;;;;;14.82;69.48;97895.22;5103607;28;20454;-74
2023/10/12 03:08:46;;;;;;;11.00;7.07;;;;;;;14.91;69.25;97890.28;5095694;28;20488;-74
2023/10/12 03:11:19;;;;;;;7.10;6.13;;;;;;;14.82;69.51;97899.84;5099570;28;20541;-74
2023/10/12 03:13:57;;;;;;;6.53;5.83;;;;;;;14.83;69.44;97906.94;5104914;28;20456;-74
2023/10/12 03:16:24;;;;;;;7.10;5.97;;;;;;;14.96;68.95;97898.56;5108061;28;20487;-74
2023/10/12 03:19:00;;;;;;;7.03;5.80;;;;;;;15.00;69.08;97902.47;5109219;28;20471;-74
2023/10/12 03:21:33;;;;;;;7.67;5.90;;;;;;;15.08;68.33;97888.53;5104691;28;20538;-74
2023/10/12 03:24:03;;;;;;;5.70;5.10;;;;;;;15.22;67.87;97886.41;5100732;28;20459;-74
2023/10/12 03:26:33;;;;;;;8.63;5.57;;;;;;;15.30;67.73;97892.34;5101168;28;20452;-74
2023/10/12 03:29:09;;;;;;;6.20;5.07;;;;;;;15.32;67.44;97889.38;5102587;28;21071;-74
2023/10/12 03:31:52;;;;;;;6.33;5.10;;;;;;;15.52;66.87;97899.94;5105348;28;20553;-74
2023/10/12 03:34:30;;;;;;;7.40;5.50;;;;;;;15.57;66.60;97902.84;5103947;28;20459;-74
2023/10/12 03:36:58;;;;;;;7.90;5.50;;;;;;;15.44;66.96;97904.69;5103717;28;20474;-74
2023/10/12 03:39:27;;;;;;;6.80;5.13;;;;;;;15.54;66.57;97904.09;5104529;28;20477;-74
2023/10/12 03:41:55;;;;;;;6.47;5.13;;;;;;;15.59;66.16;97897.97;5102389;28;20452;-74
2023/10/12 03:44:33;;;;;;;8.67;5.40;;;;;;;15.70;65.82;97897.13;5106155;28;20531;-74
2023/10/12 03:47:04;;;;;;;5.90;5.30;;;;;;;15.78;65.53;97894.03;5104370;28;20869;-74
2023/10/12 03:49:57;;;;;;;8.50;5.80;;;;;;;15.74;65.50;97898.31;5103611;28;20496;-74
2023/10/12 03:52:28;;;;;;;8.60;5.53;;;;;;;15.86;65.02;97892.84;5106248;28;20450;-74
2023/10/12 03:55:16;;;;;;;7.97;5.80;;;;;;;15.79;65.40;97890.22;5107665;28;20447;-74
2023/10/12 03:57:50;;;;;;;7.37;5.53;;;;;;;15.88;64.96;97894.25;5101484;28;20470;-74
2023/10/12 04:00:25;;;;;;;7.47;5.23;;;;;;;15.94;64.57;97889.72;5104605;28;20669;-74
2023/10/12 04:02:58;;;;;;;8.27;5.10;;;;;;;15.87;64.93;97895.34;5103076;28;20458;-74
2023/10/12 04:05:46;;;;;;;6.77;5.60;;;;;;;15.93;64.56;97897.06;5108955;28;20892;-74
2023/10/12 04:14:17;;;;;;;8.57;5.43;;;;;;;15.99;64.26;97893.41;5105913;28;20497;-74
2023/10/12 04:16:45;;;;;;;7.50;5.33;;;;;;;15.89;64.37;97890.47;5109453;28;20506;-74
2023/10/12 04:19:16;;;;;;;9.23;5.20;;;;;;;15.86;64.58;97896.41;5105438;28;20492;-74
2023/10/12 04:22:04;;;;;;;7.50;5.37;;;;;;;15.90;64.26;97892.13;5108518;28;21020;-74
2023/10/12 04:24:42;;;;;;;5.90;5.23;;;;;;;15.90;64.44;97902.22;5104453;28;20467;-75
2023/10/12 04:27:24;;;;;;;6.70;5.33;;;;;;;15.96;64.12;97902.06;5105551;28;20927;-74
2023/10/12 04:29:57;;;;;;;6.27;5.43;;;;;;;15.95;63.98;97907.75;5108977;28;20575;-74
2023/10/12 04:32:38;;;;;;;7.53;5.47;;;;;;;15.90;64.28;97904.94;5102726;28;20859;-74
2023/10/12 04:35:14;;;;;;;8.17;5.17;;;;;;;16.11;63.50;97910.59;5105039;28;21178;-75
2023/10/12 04:37:43;;;;;;;5.43;4.93;;;;;;;16.11;63.79;97921.50;5104687;28;20865;-75
2023/10/12 04:40:32;;;;;;;7.07;5.50;;;;;;;16.13;63.63;97907.63;5106228;28;20514;-74
2023/10/12 04:43:02;;;;;;;5.67;4.97;;;;;;;15.97;63.88;97913.81;5098744;28;20456;-74
2023/10/12 04:45:53;;;;;;;7.60;4.93;;;;;;;16.09;63.57;97912.72;5109952;28;20492;-75
2023/10/12 04:48:18;;;;;;;6.60;4.70;;;;;;;15.95;63.71;97910.50;5112445;28;20469;-75
2023/10/12 04:50:52;;;;;;;6.73;5.30;;;;;;;15.99;63.70;97919.88;5105792;28;20555;-75
2023/10/12 04:53:19;;;;;;;9.10;5.43;;;;;;;15.90;64.04;97924.06;5101627;28;20448;-75
2023/10/12 04:55:48;;;;;;;5.63;5.03;;;;;;;15.86;64.16;97923.69;5102069;28;20464;-75
2023/10/12 04:58:31;;;;;;;6.43;5.30;;;;;;;15.79;64.18;97917.53;5101725;28;20822;-75
2023/10/12 05:01:13;;;;;;;10.60;5.67;;;;;;;15.82;64.29;97917.03;5102054;28;20545;-75
2023/10/12 05:03:41;;;;;;;6.47;5.43;;;;;;;15.79;64.32;97923.81;5105859;28;20476;-75
2023/10/12 05:06:09;;;;;;;8.73;5.50;;;;;;;15.87;64.11;97919.91;5106947;28;20578;-74
2023/10/12 05:08:36;;;;;;;7.47;5.13;;;;;;;15.89;64.18;97925.13;5110262;28;20464;-73
2023/10/12 05:11:06;;;;;;;6.60;5.60;;;;;;;15.84;64.11;97920.38;5093667;28;20457;-76
2023/10/12 05:13:33;;;;;;;8.20;5.60;;;;;;;15.83;63.96;97926.91;5100517;28;20547;-75
2023/10/12 05:16:06;;;;;;;7.47;5.43;;;;;;;15.79;64.33;97926.53;5092878;28;20488;-75
2023/10/12 05:18:34;;;;;;;6.43;5.10;;;;;;;15.91;64.15;97926.53;5105204;28;20520;-75
2023/10/12 05:21:04;;;;;;;7.90;5.80;;;;;;;15.96;63.82;97929.34;5105707;28;20986;-75
2023/10/12 05:23:31;;;;;;;8.93;7.00;;;;;;;15.84;64.04;97922.28;5099464;28;20457;-78
2023/10/12 05:26:10;;;;;;;6.87;5.37;;;;;;;15.78;64.52;97927.59;5098032;28;21112;-72
2023/10/12 05:28:47;;;;;;;9.27;6.30;;;;;;;15.83;64.36;97926.91;5100007;28;20559;-76
2023/10/12 05:31:20;;;;;;;9.13;5.90;;;;;;;15.89;64.28;97923.22;5102582;28;20506;-77
2023/10/12 05:34:18;;;;;;;11.07;7.20;;;;;;;16.02;63.46;97925.69;5105199;28;20455;-80
2023/10/12 05:36:45;;;;;;;8.37;5.70;;;;;;;15.90;64.12;97926.78;5105801;28;20460;-79
2023/10/12 05:39:16;;;;;;;10.73;6.53;;;;;;;15.99;63.76;97934.34;5106850;28;20480;-78
2023/10/12 05:41:44;;;;;;;11.70;6.60;;;;;;;16.00;63.79;97918.78;5098078;28;20453;-77
2023/10/12 05:44:15;;;;;;;11.60;6.67;;;;;;;15.98;63.88;97920.94;5089083;28;20995;-77
2023/10/12 05:46:50;;;;;;;8.00;6.10;;;;;;;15.99;63.88;97936.25;5090988;28;20510;-76
2023/10/12 05:49:23;;;;;;;9.23;6.40;;;;;;;16.03;63.68;97930.06;5093856;28;20482;-78
2023/10/12 05:51:50;;;;;;;7.23;6.13;;;;;;;16.01;63.54;97929.47;5103171;28;20501;-77
2023/10/12 05:54:20;;;;;;;8.23;6.07;;;;;;;16.02;63.60;97944.78;5093500;28;20457;-73
2023/10/12 05:56:49;;;;;;;8.20;6.10;;;;;;;16.15;63.29;97937.41;5101247;28;20461;-73
2023/10/12 05:59:18;;;;;;;9.23;6.07;;;;;;;16.12;63.41;97936.81;5107370;28;20500;-74
2023/10/12 06:01:48;;;;;;;10.27;6.93;;;;;;;15.97;63.92;97936.47;5095823;28;20816;-74
2023/10/12 06:04:16;;;;;;;8.70;6.60;;;;;;;15.91;64.23;97942.91;5104682;28;20460;-72
2023/10/12 06:06:43;;;;;;;8.70;6.70;;;;;;;15.93;64.37;97934.47;5097406;28;20460;-79
2023/10/12 06:09:13;;;;;;;7.87;6.13;;;;;;;16.02;64.24;97938.50;5102697;28;20504;-73
2023/10/12 06:11:46;;;;;;;9.67;7.07;;;;;;;15.99;64.27;97945.25;5089199;28;20466;-77
2023/10/12 06:14:14;;;;;;;9.23;7.13;;;;;;;15.95;64.25;97948.69;5100132;28;20459;-77
2023/10/12 06:16:42;;;;;;;7.97;7.07;;;;;;;16.11;64.00;97943.34;5074270;28;20461;-78
2023/10/12 06:19:21;;;;;;;10.57;7.20;;;;;;;16.22;63.72;97949.06;5108063;28;20472;-78
2023/10/12 06:21:51;;;;;;;8.37;6.93;;;;;;;16.24;63.48;97946.91;5078395;28;22583;-78
2023/10/12 06:24:21;;;;;;;9.80;7.50;;;;;;;16.17;63.74;97943.47;5089557;28;20536;-78
2023/10/12 06:26:48;;;;;;;12.83;7.43;;;;;;;16.30;63.87;97957.69;5083940;28;20454;-78
2023/10/12 06:29:26;;;;;;;10.87;6.87;;;;;;;16.27;63.44;97951.84;5093572;28;20519;-78
2023/10/12 06:31:54;;;;;;;9.23;6.73;;;;;;;16.42;63.73;97965.84;5100303;28;20540;-78
2023/10/12 06:34:23;;;;;;;7.50;6.60;;;;;;;16.49;63.33;97960.25;5094533;28;20453;-78
2023/10/12 06:36:57;;;;;;;11.27;6.60;;;;;;;16.71;62.52;97955.81;5095836;28;20449;-78
2023/10/12 06:42:27;;;;;;;9.33;6.83;;;;;;;17.58;59.33;97977.34;5037082;28;20482;-77
2023/10/12 06:44:53;;;;;;;7.80;6.27;;;;;;;17.75;59.09;97964.53;5091542;28;20798;-77
2023/10/12 06:47:40;;;;;;;15.93;7.90;;;;;;;17.92;58.81;97968.06;5092496;28;20456;-77
2023/10/12 06:50:20;;;;;;;10.17;6.80;;;;;;;18.41;57.82;97982.75;5097228;28;20309;-77
2023/10/12 06:52:46;;;;;;;10.17;7.00;;;;;;;18.69;56.46;97980.94;5084851;28;21231;-78
2023/10/12 06:55:28;;;;;;;8.60;6.47;;;;;;;18.85;55.93;97990.16;5091610;28;21096;-78
2023/10/12 06:57:55;;;;;;;6.93;6.23;;;;;;;19.05;55.99;97983.00;5096099;28;20476;-78
2023/10/12 07:00:35;;;;;;;10.17;7.27;;;;;;;19.21;55.38;97981.22;5081614;28;20486;-77
2023/10/12 07:03:08;;;;;;;9.57;6.17;;;;;;;19.34;54.47;97985.47;5096476;28;20535;-78
2023/10/12 07:05:38;;;;;;;7.80;6.03;;;;;;;19.73;53.86;97975.16;5096693;28;20894;-78
2023/10/12 07:08:14;;;;;;;7.67;6.03;;;;;;;19.65;53.46;97997.59;5071691;28;20475;-78
2023/10/12 07:10:51;;;;;;;7.23;6.40;;;;;;;19.40;54.60;97990.75;5077179;28;20552;-77
2023/10/12 07:13:18;;;;;;;8.33;6.13;;;;;;;19.26;55.88;98002.41;5082247;28;20506;-78
2023/10/12 07:15:44;;;;;;;8.73;7.23;;;;;;;18.74;57.09;97998.28;5086277;28;20466;-78
2023/10/12 07:18:15;;;;;;;7.77;6.53;;;;;;;18.90;57.00;98009.41;5084036;28;21007;-78
2023/10/12 07:20:46;;;;;;;8.90;7.37;;;;;;;18.71;57.74;98012.50;5063774;28;20933;-78
2023/10/12 07:23:16;;;;;;;13.10;6.93;;;;;;;18.91;57.25;98008.31;5070281;28;20460;-77
2023/10/12 07:25:45;;;;;;;12.53;7.67;;;;;;;19.00;57.31;98009.53;5075952;28;20449;-78
2023/10/12 07:28:25;;;;;;;8.77;6.43;;;;;;;19.26;56.61;98013.38;5062085;28;20481;-78
2023/10/12 07:33:50;;;;;;;10.57;7.00;;;;;;;19.37;56.49;98015.97;5054459;28;20453;-78
2023/10/12 07:36:33;;;;;;;8.97;6.00;;;;;;;19.11;57.32;98025.03;5090611;28;20462;-78
2023/10/12 07:39:15;;;;;;;9.60;6.90;;;;;;;18.95;57.65;98012.22;5102154;28;20503;-77
2023/10/12 07:41:43;;;;;;;9.20;6.60;;;;;;;18.86;58.62;98003.59;5098619;28;20630;-78
2023/10/12 07:44:12;;;;;;;9.77;6.97;;;;;;;18.73;58.73;98004.84;5090394;28;20459;-78
2023/10/12 07:46:38;;;;;;;8.90;6.90;;;;;;;18.78;58.74;98021.38;5095198;28;20979;-77
2023/10/12 07:49:24;;;;;;;9.17;7.13;;;;;;;18.49;58.89;98013.53;5092477;28;20478;-78
2023/10/12 07:51:59;;;;;;;7.90;6.23;;;;;;;18.59;59.21;98025.44;5092070;28;21032;-77
2023/10/12 07:54:46;;;;;;;11.87;7.23;;;;;;;18.52;59.52;98022.06;5081878;28;20492;-77
2023/10/12 07:57:13;;;;;;;10.70;7.73;;;;;;;18.48;59.71;98020.94;5037865;28;20464;-78
2023/10/12 07:59:49;;;;;;;8.40;6.50;;;;;;;18.47;59.10;98022.03;5064948;28;20463;-78
2023/10/12 08:02:15;;;;;;;10.33;7.13;;;;;;;18.52;59.75;98022.06;5071011;28;20499;-77
2023/10/12 08:04:57;;;;;;;14.77;6.90;;;;;;;18.31;59.98;98018.22;5071499;28;20514;-77
2023/10/12 08:07:26;;;;;;;10.60;6.97;;;;;;;18.43;58.97;98009.91;5060701;28;20487;-77
2023/10/12 08:10:08;;;;;;;8.93;6.30;;;;;;;18.46;59.71;98017.63;5082005;28;20554;-78
2023/10/12 08:12:36;;;;;;;9.30;7.40;;;;;;;18.50;59.34;98015.22;5094262;28;20493;-78
2023/10/12 08:15:09;;;;;;;8.63;7.27;;;;;;;18.52;58.99;98008.34;5093034;28;20479;-78
2023/10/12 08:17:39;;;;;;;11.33;7.63;;;;;;;18.49;58.68;98002.59;5085227;28;20474;-78
2023/10/12 08:23:02;;;;;;;8.30;6.50;;;;;;;18.46;58.45;98009.41;5093440;28;20457;-77
2023/10/12 08:25:38;;;;;;;8.50;7.20;;;;;;;18.61;58.65;98017.00;5090034;28;22566;-78
2023/10/12 08:28:18;;;;;;;11.87;7.10;;;;;;;18.51;59.31;98017.69;5098715;28;21479;-78
2023/10/12 08:30:56;;;;;;;7.73;6.33;;;;;;;18.63;58.42;98009.34;5071806;28;20489;-77
2023/10/12 08:33:48;;;;;;;10.47;7.00;;;;;;;18.59;58.27;98009.00;5090173;28;20459;-78
2023/10/12 08:36:23;;;;;;;11.03;7.80;;;;;;;18.79;58.28;98014.78;5080581;28;20539;-78
2023/10/12 08:38:54;;;;;;;9.07;6.80;;;;;;;18.81;57.38;98013.72;5085480;28;20627;-77
2023/10/12 08:41:21;;;;;;;9.07;6.47;;;;;;;18.83;58.06;98008.81;5085964;28;20502;-77
2023/10/12 08:43:52;;;;;;;9.73;6.83;;;;;;;18.82;57.72;98018.13;5083886;28;20533;-77
2023/10/12 08:46:51;;;;;;;9.10;6.50;;;;;;;18.86;57.08;98013.75;5087189;28;20465;-77
2023/10/12 08:49:52;;;;;;;8.90;6.80;;;;;;;18.89;57.66;98013.25;5086696;28;20488;-77
2023/10/12 08:52:26;;;;;;;7.47;6.13;;;;;;;19.12;57.27;98016.56;5094900;28;20807;-77
2023/10/12 08:54:58;;;;;;;9.30;6.23;;;;;;;19.15;57.41;98009.72;5099817;28;20460;-77
2023/10/12 08:57:35;;;;;;;9.37;6.27;;;;;;;19.17;56.93;98015.75;5087851;28;20477;-78
2023/10/12 09:02:52;;;;;;;11.27;7.03;;;;;;;19.27;56.29;98013.13;5097738;28;21004;-79
2023/10/12 09:05:25;;;;;;;11.60;6.30;;;;;;;19.27;56.63;98015.88;5096427;28;20486;-81
2023/10/12 09:08:06;;;;;;;7.47;5.73;;;;;;;19.23;56.26;98009.25;5097508;28;20902;-78
2023/10/12 09:10:51;;;;;;;6.77;5.97;;;;;;;19.37;56.27;98015.16;5091000;28;20473;-78
2023/10/12 09:13:19;;;;;;;7.50;6.00;;;;;;;19.27;56.31;98018.63;5088357;28;20449;-79
2023/10/12 09:15:46;;;;;;;6.83;5.53;;;;;;;19.40;56.66;98022.88;5085762;28;20569;-79
2023/10/12 09:18:16;;;;;;;7.13;5.50;;;;;;;19.67;55.77;98020.97;5079867;28;20473;-78
2023/10/12 09:20:58;;;;;;;8.43;5.60;;;;;;;19.67;55.17;98022.88;5103168;28;20484;-78
2023/10/12 09:23:28;;;;;;;6.60;5.60;;;;;;;19.54;54.87;98023.28;5100011;28;20452;-78
2023/10/12 09:26:14;;;;;;;8.23;6.17;;;;;;;19.80;55.42;98027.94;5089182;28;20449;-78
2023/10/12 09:28:53;;;;;;;7.57;5.93;;;;;;;19.72;55.11;98021.00;5090885;28;20515;-78
2023/10/12 09:31:48;;;;;;;6.90;5.87;;;;;;;19.99;54.99;98023.69;5089710;28;20512;-78
2023/10/12 09:36:56;;;;;;;11.40;6.10;;;;;;;19.96;53.98;97993.16;5066079;28;20571;-76
2023/10/12 09:39:27;;;;;;;8.30;6.07;;;;;;;20.30;53.49;98013.75;5077876;28;20460;-86
2023/10/12 09:41:55;;;;;;;7.23;5.73;;;;;;;20.37;53.12;98024.50;5076093;28;20464;-83
2023/10/12 09:44:26;;;;;;;6.67;5.80;;;;;;;20.36;53.15;98022.84;5092788;28;21262;-75
2023/10/12 09:46:56;;;;;;;8.60;5.60;;;;;;;20.59;51.83;98022.47;5098951;28;20468;-79
2023/10/12 09:49:27;;;;;;;9.43;5.50;;;;;;;20.67;51.74;98024.72;5087266;28;20546;-78
2023/10/12 09:51:55;;;;;;;10.47;5.90;;;;;;;20.63;51.93;98023.59;5098309;28;20486;-78
2023/10/12 09:54:27;;;;;;;9.70;5.43;;;;;;;20.75;51.82;98021.47;5081317;28;20454;-78
2023/10/12 09:57:03;;;;;;;7.40;6.17;;;;;;;20.89;51.92;98015.44;5101625;28;20551;-77
2023/10/12 09:59:38;;;;;;;10.70;5.57;;;;;;;21.00;52.14;98012.47;5098874;28;20458;-78
2023/10/12 10:02:27;;;;;;;6.47;5.67;;;;;;;20.93;51.81;98011.88;5097894;28;20990;-78
2023/10/12 10:05:01;;;;;;;8.13;5.60;;;;;;;20.95;52.20;98015.19;5097617;28;20449;-76
2023/10/12 10:07:32;;;;;;;8.03;5.97;;;;;;;20.91;52.18;98005.00;5101019;28;20478;-78
2023/10/12 10:10:05;;;;;;;8.80;5.23;;;;;;;20.87;52.16;98014.88;5094287;28;20454;-78
2023/10/12 10:12:36;;;;;;;7.57;5.63;;;;;;;21.08;51.30;98030.41;5098994;28;20533;-77
2023/10/12 10:15:13;;;;;;;8.03;5.83;;;;;;;21.03;51.95;98022.13;5098903;28;20950;-77
2023/10/12 10:17:47;;;;;;;7.67;5.57;;;;;;;21.34;50.45;98034.91;5102485;28;20479;-77
2023/10/12 10:23:19;;;;;;;7.40;5.90;;;;;;;21.36;50.12;98027.19;5055711;28;20477;-78
2023/10/12 10:25:56;;;;;;;7.03;5.20;;;;;;;21.37;50.48;98031.59;5058099;28;20490;-77
2023/10/12 10:28:28;;;;;;;8.23;5.30;;;;;;;21.43;50.17;98024.19;5082984;28;20987;-78
2023/10/12 10:30:59;;;;;;;6.67;5.50;;;;;;;21.30;51.65;98033.78;5093753;28;20662;-77
2023/10/12 10:33:28;;;;;;;6.37;5.67;;;;;;;21.49;51.28;98025.00;5091999;28;20646;-78
2023/10/12 10:35:57;;;;;;;7.70;5.63;;;;;;;21.77;50.22;98024.47;5102803;28;20946;-78
2023/10/12 10:38:30;;;;;;;6.50;5.70;;;;;;;21.77;50.12;98038.25;5098525;28;20473;-78
2023/10/12 10:41:05;;;;;;;7.50;5.70;;;;;;;21.96;49.46;98025.59;5094132;28;20469;-78
2023/10/12 10:43:37;;;;;;;8.50;5.87;;;;;;;21.68;50.00;98031.66;5087650;28;20462;-76
2023/10/12 10:46:06;;;;;;;8.60;5.63;;;;;;;21.69;50.29;98034.13;5072451;28;20540;-78
2023/10/12 10:48:36;;;;;;;6.53;5.73;;;;;;;21.75;49.58;98029.47;5089785;28;20472;-77
2023/10/12 10:51:07;;;;;;;6.70;5.63;;;;;;;21.77;49.21;98032.75;5084239;28;21905;-76
2023/10/12 10:53:37;;;;;;;7.07;6.03;;;;;;;21.83;49.17;98030.81;5095898;28;20944;-76
2023/10/12 10:56:14;;;;;;;8.57;5.43;;;;;;;21.78;48.62;98034.41;5082248;28;20531;-75
2023/10/12 10:58:45;;;;;;;10.13;5.63;;;;;;;21.88;48.36;98031.66;5083926;28;20516;-76
2023/10/12 11:01:14;;;;;;;8.50;6.40;;;;;;;21.85;48.49;98031.38;5081511;28;20475;-76
2023/10/12 11:03:41;;;;;;;6.90;5.30;;;;;;;22.11;48.67;98033.06;5090628;28;20476;-76
2023/10/12 11:06:21;;;;;;;6.63;5.57;;;;;;;22.26;48.68;98035.81;5077828;28;20463;-76
2023/10/12 11:09:04;;;;;;;6.93;5.37;;;;;;;22.44;48.28;98031.63;5068630;28;20500;-76
2023/10/12 11:11:37;;;;;;;7.97;4.90;;;;;;;22.54;47.01;98025.28;5092314;28;21173;-76
2023/10/12 11:14:06;;;;;;;6.40;5.57;;;;;;;22.72;47.24;98039.31;5090247;28;21143;-77
2023/10/12 11:16:33;;;;;;;6.60;5.00;;;;;;;22.84;48.19;98032.66;5072000;28;20460;-77
2023/10/12 11:19:00;;;;;;;6.90;5.40;;;;;;;22.95;47.33;98028.75;5074099;28;20465;-76
2023/10/12 11:21:28;;;;;;;5.77;5.17;;;;;;;22.93;47.70;98030.97;5081403;28;20460;-77
2023/10/12 11:24:00;;;;;;;7.93;5.47;;;;;;;22.74;47.66;98025.22;5085850;28;20947;-77
2023/10/12 11:26:27;;;;;;;6.83;5.30;;;;;;;22.45;47.74;98028.59;5087095;28;20540;-76
2023/10/12 11:29:06;;;;;;;10.67;6.30;;;;;;;22.67;48.13;98035.72;5083238;28;20816;-77
2023/10/12 11:31:36;;;;;;;9.13;6.17;;;;;;;22.38;50.18;98024.50;5095992;28;20566;-76
2023/10/12 11:34:07;;;;;;;10.00;7.03;;;;;;;22.34;50.62;98053.72;5082959;28;22155;-76
2023/10/12 11:36:35;;;;;;;7.80;6.50;;;;;;;22.05;50.61;98036.94;5085728;28;20467;-76
2023/10/12 11:39:04;;;;;;;8.33;6.33;;;;;;;22.30;50.26;98038.84;5081638;28;20480;-76
2023/10/12 11:41:31;;;;;;;7.57;6.60;;;;;;;22.11;50.91;98046.84;5092374;28;20521;-76
2023/10/12 11:44:00;;;;;;;8.67;6.47;;;;;;;22.07;50.95;98054.84;5079122;28;20548;-76
2023/10/12 11:46:41;;;;;;;8.63;6.30;;;;;;;22.04;51.26;98060.91;5082041;28;20902;-76
2023/10/12 11:49:10;;;;;;;8.53;5.50;;;;;;;21.79;51.94;98041.56;5065975;28;20462;-76
2023/10/12 11:51:40;;;;;;;8.33;6.20;;;;;;;22.10;51.67;98051.53;5098685;28;20887;-76
2023/10/12 11:54:07;;;;;;;10.93;6.67;;;;;;;22.43;50.48;98041.00;5087722;28;21623;-77
2023/10/12 11:56:43;;;;;;;7.43;6.07;;;;;;;22.25;50.34;98044.34;5094902;28;21118;-77
2023/10/12 11:59:13;;;;;;;9.80;5.90;;;;;;;22.46;49.80;98024.72;5100310;28;20465;-77
2023/10/12 12:01:42;;;;;;;9.43;6.50;;;;;;;22.51;49.69;98028.59;5087621;28;20460;-76
2023/10/12 12:04:16;;;;;;;8.67;6.23;;;;;;;22.51;49.62;98031.34;5077739;28;20481;-77
2023/10/12 12:06:45;;;;;;;9.73;6.60;;;;;;;22.28;50.06;98036.34;5093904;28;20559;-76
2023/10/12 12:09:16;;;;;;;10.90;6.37;;;;;;;22.13;50.92;98031.66;5094438;28;20511;-76
2023/10/12 12:11:43;;;;;;;6.77;6.17;;;;;;;22.39;49.57;98020.63;5079658;28;21044;-77
2023/10/12 12:14:10;;;;;;;10.40;6.07;;;;;;;22.01;50.19;98011.84;5076491;28;20452;-76
2023/10/12 12:16:38;;;;;;;6.67;5.60;;;;;;;22.21;49.47;98026.72;5072893;28;20827;-76
2023/10/12 12:19:06;;;;;;;8.30;5.60;;;;;;;22.40;48.84;98019.53;5089213;28;20500;-76
2023/10/12 12:21:34;;;;;;;7.67;6.00;;;;;;;22.21;49.63;98026.72;5084896;28;20531;-76